sensor_id;sensor_type;location;lat;lon;timestamp;temperature;humidity
55026;DHT22;40925;45.666;18.994;2023-05-10T05:42:12;307.30;2304.00
55026;DHT22;40925;45.666;18.994;2023-05-10T05:51:31;307.50;2304.00
55026;DHT22;40925;45.666;18.994;2023-05-10T05:53:56;307.50;2304.00
55026;DHT22;40925;45.666;18.994;2023-05-10T05:56:22;307.70;2304.00
55026;DHT22;40925;45.666;18.994;2023-05-10T05:58:51;307.70;2304.00
55026;DHT22;40925;45.666;18.994;2023-05-10T06:01:17;307.80;2304.00
55026;DHT22;40925;45.666;18.994;2023-05-10T06:03:42;307.90;2304.00
55026;DHT22;40925;45.666;18.994;2023-05-10T06:06:08;308.00;2304.00
55026;DHT22;40925;45.666;18.994;2023-05-10T06:08:34;308.10;2304.00
55026;DHT22;40925;45.666;18.994;2023-05-10T06:11:00;308.10;2304.00
55026;DHT22;40925;45.666;18.994;2023-05-10T06:13:26;333.10;2329.60
55026;DHT22;40925;45.666;18.994;2023-05-10T06:15:58;332.90;2329.60
55026;DHT22;40925;45.666;18.994;2023-05-10T07:46:01;410.30;2355.20
55026;DHT22;40925;45.666;18.994;2023-05-10T07:48:30;410.10;2355.20
55026;DHT22;40925;45.666;18.994;2023-05-10T07:50:57;410.10;2355.20
55026;DHT22;40925;45.666;18.994;2023-05-10T07:53:22;410.40;2355.20
55026;DHT22;40925;45.666;18.994;2023-05-10T07:55:52;410.00;2355.20
55026;DHT22;40925;45.666;18.994;2023-05-10T07:58:19;409.90;2355.20
55026;DHT22;40925;45.666;18.994;2023-05-10T08:00:46;410.10;2355.20
55026;DHT22;40925;45.666;18.994;2023-05-10T08:03:12;410.40;2355.20
55026;DHT22;40925;45.666;18.994;2023-05-10T08:05:38;435.20;2355.20
55026;DHT22;40925;45.666;18.994;2023-05-10T08:08:03;410.50;2355.20
55026;DHT22;40925;45.666;18.994;2023-05-10T08:10:29;410.30;2355.20
55026;DHT22;40925;45.666;18.994;2023-05-10T08:12:55;410.40;2355.20
55026;DHT22;40925;45.666;18.994;2023-05-10T08:15:21;435.50;2355.20
55026;DHT22;40925;45.666;18.994;2023-05-10T08:17:46;435.80;2355.20
55026;DHT22;40925;45.666;18.994;2023-05-10T08:20:12;435.40;2355.20
55026;DHT22;40925;45.666;18.994;2023-05-10T08:22:42;435.30;2355.20
55026;DHT22;40925;45.666;18.994;2023-05-10T08:42:16;461.70;2380.80
55026;DHT22;40925;45.666;18.994;2023-05-10T08:52:04;486.90;2380.80
55026;DHT22;40925;45.666;18.994;2023-05-10T08:54:32;486.70;2380.80
55026;DHT22;40925;45.666;18.994;2023-05-10T09:01:51;486.90;2304.00
55026;DHT22;40925;45.666;18.994;2023-05-10T09:04:19;486.70;2329.60
55026;DHT22;40925;45.666;18.994;2023-05-10T09:06:45;486.90;2278.40
55026;DHT22;40925;45.666;18.994;2023-05-10T09:16:30;486.90;2380.80
55026;DHT22;40925;45.666;18.994;2023-05-10T09:18:56;486.70;2355.20
55026;DHT22;40925;45.666;18.994;2023-05-10T09:21:21;486.50;2329.60
55026;DHT22;40925;45.666;18.994;2023-05-10T09:26:15;487.00;2355.20
55026;DHT22;40925;45.666;18.994;2023-05-10T09:28:52;461.60;2355.20
55026;DHT22;40925;45.666;18.994;2023-05-10T09:31:18;486.40;2380.80
55026;DHT22;40925;45.666;18.994;2023-05-10T09:36:12;486.60;2329.60
55026;DHT22;40925;45.666;18.994;2023-05-10T09:41:19;487.00;2380.80
55026;DHT22;40925;45.666;18.994;2023-05-10T09:43:46;487.20;2278.40
55026;DHT22;40925;45.666;18.994;2023-05-10T09:46:12;486.90;2304.00
55026;DHT22;40925;45.666;18.994;2023-05-10T09:56:37;487.20;2176.00
55026;DHT22;40925;45.666;18.994;2023-05-10T09:59:05;512.10;2201.60
55026;DHT22;40925;45.666;18.994;2023-05-10T10:01:31;512.10;2201.60
55026;DHT22;40925;45.666;18.994;2023-05-10T10:03:57;487.00;2252.80
55026;DHT22;40925;45.666;18.994;2023-05-10T10:06:24;487.20;2201.60
55026;DHT22;40925;45.666;18.994;2023-05-10T10:08:50;512.50;2201.60
55026;DHT22;40925;45.666;18.994;2023-05-10T10:11:16;512.10;2099.20
55026;DHT22;40925;45.666;18.994;2023-05-10T10:13:43;512.10;2201.60
55026;DHT22;40925;45.666;18.994;2023-05-10T10:16:09;512.30;2150.40
55026;DHT22;40925;45.666;18.994;2023-05-10T10:18:36;512.40;2073.60
55026;DHT22;40925;45.666;18.994;2023-05-10T10:21:08;512.70;2073.60
55026;DHT22;40925;45.666;18.994;2023-05-10T10:23:37;512.50;2048.00
55026;DHT22;40925;45.666;18.994;2023-05-10T10:26:04;512.10;2099.20
55026;DHT22;40925;45.666;18.994;2023-05-10T10:28:57;487.20;2124.80
55026;DHT22;40925;45.666;18.994;2023-05-10T10:34:11;487.10;2252.80
55026;DHT22;40925;45.666;18.994;2023-05-10T10:36:45;512.40;2201.60
55026;DHT22;40925;45.666;18.994;2023-05-10T10:39:12;512.40;2073.60
55026;DHT22;40925;45.666;18.994;2023-05-10T10:41:57;487.20;2124.80
55026;DHT22;40925;45.666;18.994;2023-05-10T10:50:18;512.50;2099.20
55026;DHT22;40925;45.666;18.994;2023-05-10T11:00:27;537.90;1945.60
55026;DHT22;40925;45.666;18.994;2023-05-10T11:05:42;537.90;1945.60
55026;DHT22;40925;45.666;18.994;2023-05-10T11:08:16;537.80;1945.60
55026;DHT22;40925;45.666;18.994;2023-05-10T11:16:20;538.00;1996.80
55026;DHT22;40925;45.666;18.994;2023-05-10T11:19:03;538.00;1971.20
55026;DHT22;40925;45.666;18.994;2023-05-10T11:24:00;563.40;1920.00
55026;DHT22;40925;45.666;18.994;2023-05-10T11:26:34;538.40;1868.80
55026;DHT22;40925;45.666;18.994;2023-05-10T11:29:00;563.30;1894.40
55026;DHT22;40925;45.666;18.994;2023-05-10T12:16:15;563.50;1664.00
55026;DHT22;40925;45.666;18.994;2023-05-10T12:18:41;538.30;1792.00
55026;DHT22;40925;45.666;18.994;2023-05-10T12:21:10;538.10;2073.60
55026;DHT22;40925;45.666;18.994;2023-05-10T12:23:37;538.30;1843.20
55026;DHT22;40925;45.666;18.994;2023-05-10T12:26:04;538.00;1868.80
55026;DHT22;40925;45.666;18.994;2023-05-10T12:28:31;512.80;1868.80
55026;DHT22;40925;45.666;18.994;2023-05-10T12:30:59;537.80;1920.00
55026;DHT22;40925;45.666;18.994;2023-05-10T12:35:54;563.40;2099.20
55026;DHT22;40925;45.666;18.994;2023-05-10T12:38:31;563.90;1792.00
55026;DHT22;40925;45.666;18.994;2023-05-10T12:40:59;588.80;1740.80
55026;DHT22;40925;45.666;18.994;2023-05-10T12:45:51;589.40;1715.20
55026;DHT22;40925;45.666;18.994;2023-05-10T12:55:35;563.50;1766.40
55026;DHT22;40925;45.666;18.994;2023-05-10T13:02:52;564.10;1715.20
55026;DHT22;40925;45.666;18.994;2023-05-10T13:05:18;564.00;1689.60
55026;DHT22;40925;45.666;18.994;2023-05-10T13:07:44;563.80;1740.80
55026;DHT22;40925;45.666;18.994;2023-05-10T13:10:10;563.30;1766.40
55026;DHT22;40925;45.666;18.994;2023-05-10T13:12:36;563.60;1792.00
55026;DHT22;40925;45.666;18.994;2023-05-10T13:15:03;563.20;1792.00
55026;DHT22;40925;45.666;18.994;2023-05-10T13:17:29;563.30;1792.00
55026;DHT22;40925;45.666;18.994;2023-05-10T13:19:55;563.50;1792.00
55026;DHT22;40925;45.666;18.994;2023-05-10T13:22:20;563.60;1766.40
55026;DHT22;40925;45.666;18.994;2023-05-10T13:24:46;563.50;1740.80
55026;DHT22;40925;45.666;18.994;2023-05-10T13:27:12;538.50;1740.80
55026;DHT22;40925;45.666;18.994;2023-05-10T13:32:04;563.60;1792.00
55026;DHT22;40925;45.666;18.994;2023-05-10T13:34:30;563.50;1792.00
55026;DHT22;40925;45.666;18.994;2023-05-10T13:36:55;563.20;1766.40
55026;DHT22;40925;45.666;18.994;2023-05-10T13:39:22;564.00;1740.80
55026;DHT22;40925;45.666;18.994;2023-05-10T13:41:48;564.10;1715.20
55026;DHT22;40925;45.666;18.994;2023-05-10T13:46:41;563.70;1689.60
55026;DHT22;40925;45.666;18.994;2023-05-10T13:49:09;564.00;1740.80
55026;DHT22;40925;45.666;18.994;2023-05-10T13:51:35;588.90;1715.20
55026;DHT22;40925;45.666;18.994;2023-05-10T13:54:01;563.70;1715.20
55026;DHT22;40925;45.666;18.994;2023-05-10T13:56:36;538.40;1740.80
55026;DHT22;40925;45.666;18.994;2023-05-10T13:59:02;538.20;1740.80
55026;DHT22;40925;45.666;18.994;2023-05-10T14:28:21;563.60;1740.80
55026;DHT22;40925;45.666;18.994;2023-05-10T14:30:48;563.60;1740.80
55026;DHT22;40925;45.666;18.994;2023-05-10T14:33:13;538.50;1715.20
55026;DHT22;40925;45.666;18.994;2023-05-10T14:35:39;563.30;1766.40
55026;DHT22;40925;45.666;18.994;2023-05-10T14:38:05;563.30;1740.80
55026;DHT22;40925;45.666;18.994;2023-05-10T14:40:31;563.50;1689.60
55026;DHT22;40925;45.666;18.994;2023-05-10T14:42:57;563.90;1689.60
55026;DHT22;40925;45.666;18.994;2023-05-10T14:45:23;563.80;1664.00
55026;DHT22;40925;45.666;18.994;2023-05-10T14:47:49;563.50;1740.80
55026;DHT22;40925;45.666;18.994;2023-05-10T14:50:16;563.30;1766.40
55026;DHT22;40925;45.666;18.994;2023-05-10T15:00:56;538.30;1971.20
55026;DHT22;40925;45.666;18.994;2023-05-10T15:07:11;538.10;1766.40
55026;DHT22;40925;45.666;18.994;2023-05-10T15:09:39;538.30;1740.80
55026;DHT22;40925;45.666;18.994;2023-05-10T15:12:05;538.40;1740.80
55026;DHT22;40925;45.666;18.994;2023-05-10T15:14:31;563.20;1740.80
55026;DHT22;40925;45.666;18.994;2023-05-10T15:20:57;563.60;1689.60
55026;DHT22;40925;45.666;18.994;2023-05-10T15:23:23;563.50;1664.00
55026;DHT22;40925;45.666;18.994;2023-05-10T15:25:49;538.50;1689.60
55026;DHT22;40925;45.666;18.994;2023-05-10T15:28:17;538.50;1740.80
55026;DHT22;40925;45.666;18.994;2023-05-10T15:33:09;537.80;1792.00
55026;DHT22;40925;45.666;18.994;2023-05-10T15:50:14;512.60;1766.40
55026;DHT22;40925;45.666;18.994;2023-05-10T16:00:11;512.30;1792.00
55026;DHT22;40925;45.666;18.994;2023-05-10T16:02:38;512.10;1843.20
55026;DHT22;40925;45.666;18.994;2023-05-10T16:09:57;487.20;1843.20
55026;DHT22;40925;45.666;18.994;2023-05-10T16:14:48;487.00;1894.40
55026;DHT22;40925;45.666;18.994;2023-05-10T16:17:23;486.80;1920.00
55026;DHT22;40925;45.666;18.994;2023-05-10T16:24:41;486.60;1920.00
55026;DHT22;40925;45.666;18.994;2023-05-10T16:27:07;486.50;1920.00
55026;DHT22;40925;45.666;18.994;2023-05-10T16:29:33;486.60;1945.60
55026;DHT22;40925;45.666;18.994;2023-05-10T16:31:58;486.50;1920.00
55026;DHT22;40925;45.666;18.994;2023-05-10T16:34:24;486.60;1945.60
55026;DHT22;40925;45.666;18.994;2023-05-10T16:36:50;486.50;1945.60
55026;DHT22;40925;45.666;18.994;2023-05-10T16:41:42;486.70;1945.60
55026;DHT22;40925;45.666;18.994;2023-05-10T16:44:07;461.70;1971.20
55026;DHT22;40925;45.666;18.994;2023-05-10T17:16:04;461.20;2124.80
55026;DHT22;40925;45.666;18.994;2023-05-10T17:18:49;460.90;2150.40
55026;DHT22;40925;45.666;18.994;2023-05-10T17:21:15;461.00;2201.60
55026;DHT22;40925;45.666;18.994;2023-05-10T17:23:41;460.90;2380.80
55026;DHT22;40925;45.666;18.994;2023-05-10T17:26:07;460.80;2252.80
55026;DHT22;40925;45.666;18.994;2023-05-10T17:28:33;436.00;2227.20
55026;DHT22;40925;45.666;18.994;2023-05-10T17:30:58;435.90;2278.40
55026;DHT22;40925;45.666;18.994;2023-05-10T17:33:24;435.90;2304.00
55026;DHT22;40925;45.666;18.994;2023-05-10T17:35:50;435.90;2304.00
55026;DHT22;40925;45.666;18.994;2023-05-10T17:38:16;435.90;2329.60
55026;DHT22;40925;45.666;18.994;2023-05-10T17:40:41;435.80;2329.60
55026;DHT22;40925;45.666;18.994;2023-05-10T17:43:07;435.70;2355.20
55026;DHT22;40925;45.666;18.994;2023-05-10T17:48:00;435.80;2355.20
55026;DHT22;40925;45.666;18.994;2023-05-10T17:50:25;435.70;2355.20
55026;DHT22;40925;45.666;18.994;2023-05-10T17:52:51;435.50;2355.20
55026;DHT22;40925;45.666;18.994;2023-05-10T17:55:17;435.50;2355.20
55026;DHT22;40925;45.666;18.994;2023-05-10T17:57:42;435.30;2355.20
55026;DHT22;40925;45.666;18.994;2023-05-10T18:00:09;435.20;2355.20
55026;DHT22;40925;45.666;18.994;2023-05-10T18:02:35;435.20;2355.20
55026;DHT22;40925;45.666;18.994;2023-05-10T18:05:04;410.50;2355.20
55026;DHT22;40925;45.666;18.994;2023-05-10T18:07:30;410.50;2355.20
55026;DHT22;40925;45.666;18.994;2023-05-10T18:09:56;410.40;2355.20
55026;DHT22;40925;45.666;18.994;2023-05-10T18:12:23;410.50;2355.20
55026;DHT22;40925;45.666;18.994;2023-05-10T18:14:49;410.30;2355.20
55026;DHT22;40925;45.666;18.994;2023-05-10T18:17:14;410.50;2355.20
55026;DHT22;40925;45.666;18.994;2023-05-10T18:20:17;410.30;2355.20
55026;DHT22;40925;45.666;18.994;2023-05-10T18:22:43;410.20;2355.20
55026;DHT22;40925;45.666;18.994;2023-05-10T18:25:09;410.20;2355.20
55026;DHT22;40925;45.666;18.994;2023-05-10T18:27:34;410.10;2355.20
55026;DHT22;40925;45.666;18.994;2023-05-10T18:30:00;410.10;2355.20
55026;DHT22;40925;45.666;18.994;2023-05-10T18:32:26;410.00;2355.20
55026;DHT22;40925;45.666;18.994;2023-05-10T18:34:52;410.10;2355.20
55026;DHT22;40925;45.666;18.994;2023-05-10T18:37:18;410.00;2355.20
55026;DHT22;40925;45.666;18.994;2023-05-10T18:39:44;410.00;2355.20
55026;DHT22;40925;45.666;18.994;2023-05-10T18:42:10;410.00;2355.20
55026;DHT22;40925;45.666;18.994;2023-05-10T18:44:35;410.00;2355.20
55026;DHT22;40925;45.666;18.994;2023-05-10T18:47:01;410.00;2355.20
55026;DHT22;40925;45.666;18.994;2023-05-10T18:49:27;409.90;2355.20
55026;DHT22;40925;45.666;18.994;2023-05-10T18:51:53;409.90;2355.20
55026;DHT22;40925;45.666;18.994;2023-05-10T18:54:19;409.80;2355.20
55026;DHT22;40925;45.666;18.994;2023-05-10T18:56:45;409.90;2355.20
55026;DHT22;40925;45.666;18.994;2023-05-10T18:59:11;409.80;2355.20
55026;DHT22;40925;45.666;18.994;2023-05-10T19:01:39;409.80;2355.20
55026;DHT22;40925;45.666;18.994;2023-05-10T19:04:05;409.70;2355.20
55026;DHT22;40925;45.666;18.994;2023-05-10T19:06:31;409.80;2355.20
55026;DHT22;40925;45.666;18.994;2023-05-10T19:23:54;409.80;2355.20
55026;DHT22;40925;45.666;18.994;2023-05-10T19:26:21;384.90;2329.60
55026;DHT22;40925;45.666;18.994;2023-05-10T19:28:49;384.80;2329.60
55026;DHT22;40925;45.666;18.994;2023-05-10T19:31:15;384.80;2329.60
55026;DHT22;40925;45.666;18.994;2023-05-10T19:33:41;384.80;2329.60
55026;DHT22;40925;45.666;18.994;2023-05-10T19:36:09;384.80;2329.60
55026;DHT22;40925;45.666;18.994;2023-05-10T19:38:36;384.80;2329.60
55026;DHT22;40925;45.666;18.994;2023-05-10T19:41:02;384.70;2329.60
55026;DHT22;40925;45.666;18.994;2023-05-10T19:43:30;384.60;2329.60
55026;DHT22;40925;45.666;18.994;2023-05-10T19:46:00;384.60;2329.60
55026;DHT22;40925;45.666;18.994;2023-05-10T19:48:26;384.50;2329.60
55026;DHT22;40925;45.666;18.994;2023-05-10T19:50:53;384.70;2329.60
55026;DHT22;40925;45.666;18.994;2023-05-10T19:53:23;384.50;2329.60
55026;DHT22;40925;45.666;18.994;2023-05-10T19:55:49;384.50;2329.60
55026;DHT22;40925;45.666;18.994;2023-05-10T19:58:14;384.50;2329.60
55026;DHT22;40925;45.666;18.994;2023-05-10T20:00:41;384.40;2329.60
55026;DHT22;40925;45.666;18.994;2023-05-10T20:03:06;384.40;2329.60
55026;DHT22;40925;45.666;18.994;2023-05-10T20:05:32;384.30;2329.60
55026;DHT22;40925;45.666;18.994;2023-05-10T20:07:58;384.30;2329.60
55026;DHT22;40925;45.666;18.994;2023-05-10T20:10:23;384.30;2329.60
55026;DHT22;40925;45.666;18.994;2023-05-10T20:12:49;384.30;2329.60
55026;DHT22;40925;45.666;18.994;2023-05-10T20:15:18;384.30;2329.60
55026;DHT22;40925;45.666;18.994;2023-05-10T20:17:45;384.20;2329.60
55026;DHT22;40925;45.666;18.994;2023-05-10T20:20:12;384.20;2329.60
55026;DHT22;40925;45.666;18.994;2023-05-10T20:22:38;384.20;2329.60
55026;DHT22;40925;45.666;18.994;2023-05-10T20:25:05;384.10;2329.60
55026;DHT22;40925;45.666;18.994;2023-05-10T20:27:31;384.10;2329.60
55026;DHT22;40925;45.666;18.994;2023-05-10T20:29:56;384.10;2329.60
55026;DHT22;40925;45.666;18.994;2023-05-10T20:32:22;384.10;2329.60
55026;DHT22;40925;45.666;18.994;2023-05-10T20:34:48;384.10;2329.60
55026;DHT22;40925;45.666;18.994;2023-05-10T20:37:14;384.00;2329.60
55026;DHT22;40925;45.666;18.994;2023-05-10T20:39:42;384.00;2329.60
55026;DHT22;40925;45.666;18.994;2023-05-10T20:42:08;384.00;2329.60
55026;DHT22;40925;45.666;18.994;2023-05-10T20:44:33;384.00;2329.60
55026;DHT22;40925;45.666;18.994;2023-05-10T20:46:59;359.30;2329.60
55026;DHT22;40925;45.666;18.994;2023-05-10T20:49:25;359.30;2329.60
55026;DHT22;40925;45.666;18.994;2023-05-10T20:51:52;359.10;2329.60
55026;DHT22;40925;45.666;18.994;2023-05-10T20:54:18;359.20;2329.60
55026;DHT22;40925;45.666;18.994;2023-05-10T20:56:44;359.10;2329.60
55026;DHT22;40925;45.666;18.994;2023-05-10T20:59:10;358.90;2329.60
55026;DHT22;40925;45.666;18.994;2023-05-10T21:01:36;359.00;2329.60
55026;DHT22;40925;45.666;18.994;2023-05-10T21:04:02;359.00;2329.60
55026;DHT22;40925;45.666;18.994;2023-05-10T21:06:28;358.90;2329.60
55026;DHT22;40925;45.666;18.994;2023-05-10T21:08:53;358.90;2329.60
55026;DHT22;40925;45.666;18.994;2023-05-10T21:11:19;358.90;2329.60
55026;DHT22;40925;45.666;18.994;2023-05-10T21:13:45;358.80;2329.60
55026;DHT22;40925;45.666;18.994;2023-05-10T21:16:11;358.90;2329.60
55026;DHT22;40925;45.666;18.994;2023-05-10T21:18:37;358.80;2329.60
